Terminal Aerodrome Forecast
Issued by NWS

Home | Current Version | Previous Version | Text Only | Print | Product List | Glossary On
Versions: 1 2 3 4 5 6 7 8 9 10 11 12 13
000
FTAK31 PAJN 230500
TAFAPG
TAF
PAPG 230520Z 2306/2406 07006KT P6SM VCSH FEW015 SCT060 BKN100
     FM230900 00000KT P6SM VCFG FEW002 OVC100
     FM231500 04004KT P6SM OVC080
     FM231800 05006KT P6SM SCT080 BKN120
      AMD LTD TO CLD VIS AND WIND 2306/2315=

USA.gov is the U.S. government's official web portal to all federal, state and local government web resources and services.